createdAt,value
2022-10-23T00:02:02.577Z,97900.44
2022-10-23T00:04:29.313Z,97905.91
2022-10-23T00:06:56.040Z,97903.94
2022-10-23T00:09:24.532Z,97904.72
2022-10-23T00:11:52.649Z,97889.63
2022-10-23T00:14:26.236Z,97890.75
2022-10-23T00:16:52.800Z,97893.50
2022-10-23T00:19:19.665Z,97890.00
2022-10-23T00:21:54.527Z,97888.44
2022-10-23T00:24:24.283Z,97895.81
2022-10-23T00:26:51.032Z,97883.03
2022-10-23T00:29:17.745Z,97889.59
2022-10-23T00:31:44.253Z,97888.44
2022-10-23T00:34:11.113Z,97884.19
2022-10-23T00:36:43.278Z,97886.88
2022-10-23T00:39:09.760Z,97893.09
2022-10-23T00:41:36.268Z,97896.59
2022-10-23T00:44:38.028Z,97890.38
2022-10-23T00:47:04.716Z,97897.38
2022-10-23T00:49:33.537Z,97893.50
2022-10-23T00:52:04.985Z,97894.66
2022-10-23T00:54:34.563Z,97898.16
2022-10-23T00:57:02.769Z,97891.16
2022-10-23T00:59:32.115Z,97876.03
2022-10-23T01:01:59.448Z,97877.56
2022-10-23T01:04:27.691Z,97881.84
2022-10-23T01:07:33.462Z,97875.22
2022-10-23T01:10:13.996Z,97870.19
2022-10-23T01:12:49.581Z,97858.91
2022-10-23T01:15:41.817Z,97856.97
2022-10-23T01:21:05.415Z,97855.44
2022-10-23T01:24:01.135Z,97850.41
2022-10-23T01:27:11.556Z,97850.41
2022-10-23T01:29:59.436Z,97846.91
2022-10-23T01:33:00.962Z,97840.69
2022-10-23T01:35:38.106Z,97841.06
2022-10-23T01:38:13.762Z,97838.34
2022-10-23T01:40:48.781Z,97843.41
2022-10-23T01:43:27.730Z,97839.13
2022-10-23T01:46:05.339Z,97845.34
2022-10-23T01:48:33.618Z,97839.91
2022-10-23T01:51:04.714Z,97845.38
2022-10-23T01:53:38.130Z,97846.91
2022-10-23T01:56:09.746Z,97841.47
2022-10-23T01:58:37.967Z,97841.09
2022-10-23T02:01:07.902Z,97843.81
2022-10-23T02:03:37.386Z,97835.66
2022-10-23T02:06:06.386Z,97840.34
2022-10-23T02:08:33.079Z,97827.16
2022-10-23T02:11:14.523Z,97829.88
2022-10-23T02:13:59.055Z,97823.66
2022-10-23T02:16:42.653Z,97821.34
2022-10-23T02:19:29.395Z,97822.50
2022-10-23T02:22:04.029Z,97808.16
2022-10-23T02:24:39.698Z,97803.47
2022-10-23T02:27:13.529Z,97800.00
2022-10-23T02:29:50.653Z,97808.13
2022-10-23T02:32:20.271Z,97811.25
2022-10-23T02:34:48.015Z,97795.75
2022-10-23T02:37:18.656Z,97800.41
2022-10-23T02:39:45.616Z,97798.06
2022-10-23T02:42:22.518Z,97793.41
2022-10-23T02:45:12.630Z,97785.66
2022-10-23T02:47:58.796Z,97785.25
2022-10-23T02:50:29.241Z,97786.44
2022-10-23T02:53:14.532Z,97784.88
2022-10-23T02:55:55.912Z,97777.13
2022-10-23T02:58:32.418Z,97773.28
2022-10-23T03:01:10.570Z,97771.69
2022-10-23T03:03:45.793Z,97762.38
2022-10-23T03:06:12.954Z,97753.84
2022-10-23T03:08:44.514Z,97747.25
2022-10-23T03:11:13.378Z,97743.72
2022-10-23T03:13:42.199Z,97747.59
2022-10-23T03:16:08.694Z,97741.38
2022-10-23T03:18:35.805Z,97740.56
2022-10-23T03:21:02.414Z,97739.03
2022-10-23T03:23:28.892Z,97741.34
2022-10-23T03:26:01.940Z,97740.19
2022-10-23T03:28:28.501Z,97744.84
2022-10-23T03:30:56.031Z,97741.38
2022-10-23T03:33:24.570Z,97739.84
2022-10-23T03:35:51.090Z,97733.63
2022-10-23T03:38:17.881Z,97734.03
2022-10-23T03:40:46.201Z,97739.47
2022-10-23T03:43:12.714Z,97740.63
2022-10-23T03:45:39.313Z,97735.19
2022-10-23T03:48:08.601Z,97736.38
2022-10-23T03:50:35.838Z,97739.09
2022-10-23T03:53:02.323Z,97742.19
2022-10-23T03:55:29.059Z,97741.81
2022-10-23T04:00:23.358Z,97743.38
2022-10-23T04:02:51.686Z,97736.03
2022-10-23T04:05:18.189Z,97735.63
2022-10-23T04:07:47.011Z,97740.66
2022-10-23T04:10:15.256Z,97740.25
2022-10-23T04:12:42.285Z,97738.72
2022-10-23T04:15:09.224Z,97730.59
2022-10-23T04:17:42.349Z,97743.75
2022-10-23T04:20:09.411Z,97737.56
2022-10-23T04:22:35.874Z,97730.22
2022-10-23T04:25:02.674Z,97730.63
2022-10-23T04:27:29.189Z,97733.72
2022-10-23T04:29:59.124Z,97738.75
2022-10-23T04:32:26.357Z,97730.97
2022-10-23T04:34:52.870Z,97730.59
2022-10-23T04:37:19.703Z,97747.59
2022-10-23T04:39:51.436Z,97751.06
2022-10-23T04:42:17.985Z,97734.00
2022-10-23T04:44:44.486Z,97744.03
2022-10-23T04:47:11.073Z,97747.50
2022-10-23T04:49:37.819Z,97742.88
2022-10-23T04:52:04.440Z,97746.75
2022-10-23T04:54:36.797Z,97751.81
2022-10-23T04:57:03.400Z,97760.75
2022-10-23T04:59:29.947Z,97760.00
2022-10-23T05:02:03.112Z,97756.53
2022-10-23T05:04:29.651Z,97759.25
2022-10-23T05:06:56.301Z,97757.28
2022-10-23T05:09:24.629Z,97758.09
2022-10-23T05:11:53.027Z,97754.59
2022-10-23T05:14:22.681Z,97756.94
2022-10-23T05:17:15.783Z,97750.72
2022-10-23T05:19:46.546Z,97758.47
2022-10-23T05:22:15.485Z,97757.66
2022-10-23T05:24:46.943Z,97734.84
2022-10-23T05:27:19.729Z,97738.31
2022-10-23T05:29:46.595Z,97745.72
2022-10-23T05:32:15.268Z,97770.50
2022-10-23T05:34:42.809Z,97767.41
2022-10-23T05:37:13.049Z,97767.78
2022-10-23T05:39:44.292Z,97760.78
2022-10-23T05:42:10.834Z,97757.72
2022-10-23T05:44:37.439Z,97763.53
2022-10-23T05:47:04.042Z,97770.09
2022-10-23T05:49:30.580Z,97761.97
2022-10-23T05:51:57.131Z,97757.69
2022-10-23T05:54:23.782Z,97753.44
2022-10-23T05:56:50.309Z,97757.69
2022-10-23T05:59:20.420Z,97755.75
2022-10-23T06:01:50.817Z,97769.28
2022-10-23T06:04:28.098Z,97763.84
2022-10-23T06:06:58.564Z,97753.00
2022-10-23T06:09:25.406Z,97764.59
2022-10-23T06:11:52.058Z,97762.28
2022-10-23T06:14:18.582Z,97758.41
2022-10-23T06:16:45.236Z,97754.94
2022-10-23T06:19:12.738Z,97757.28
2022-10-23T06:21:40.130Z,97762.34
2022-10-23T06:24:07.512Z,97773.59
2022-10-23T06:26:34.354Z,97760.03
2022-10-23T06:29:00.983Z,97764.28
2022-10-23T06:31:28.398Z,97760.03
2022-10-23T06:33:58.151Z,97752.34
2022-10-23T06:36:25.470Z,97757.72
2022-10-23T06:38:52.352Z,97755.31
2022-10-23T06:41:21.320Z,97765.38
2022-10-23T06:43:49.872Z,97758.47
2022-10-23T06:46:17.792Z,97746.47
2022-10-23T06:48:46.823Z,97749.22
2022-10-23T06:51:17.046Z,97743.41
2022-10-23T06:53:44.582Z,97730.63
2022-10-23T06:56:13.803Z,97736.00
2022-10-23T06:58:42.563Z,97738.28
2022-10-23T07:01:12.301Z,97745.97
2022-10-23T07:03:39.123Z,97747.34
2022-10-23T07:06:09.484Z,97737.97
2022-10-23T07:08:37.013Z,97747.44
2022-10-23T07:11:08.203Z,97758.59
2022-10-23T07:13:36.435Z,97750.94
2022-10-23T07:16:23.146Z,97753.81
2022-10-23T07:18:58.674Z,97744.66
2022-10-23T07:21:26.523Z,97763.56
2022-10-23T07:23:53.052Z,97758.22
2022-10-23T07:26:19.835Z,97757.72
2022-10-23T07:28:50.299Z,97747.00
2022-10-23T07:31:16.884Z,97749.88
2022-10-23T07:33:45.710Z,97743.97
2022-10-23T07:36:14.520Z,97732.81
2022-10-23T07:38:41.309Z,97739.88
2022-10-23T07:41:11.528Z,97735.34
2022-10-23T07:43:39.815Z,97741.56
2022-10-23T07:46:08.359Z,97729.16
2022-10-23T07:48:34.818Z,97730.84
2022-10-23T07:51:08.193Z,97740.91
2022-10-23T07:53:35.898Z,97751.81
2022-10-23T07:56:05.418Z,97743.97
2022-10-23T07:58:33.617Z,97746.50
2022-10-23T08:01:01.661Z,97746.50
2022-10-23T08:03:30.702Z,97740.75
2022-10-23T08:06:00.107Z,97738.88
2022-10-23T08:08:27.253Z,97741.59
2022-10-23T08:10:55.421Z,97747.44
2022-10-23T08:13:28.909Z,97744.56
2022-10-23T08:15:55.992Z,97735.25
2022-10-23T08:18:22.588Z,97733.53
2022-10-23T08:20:53.305Z,97743.06
2022-10-23T08:23:20.284Z,97734.75
2022-10-23T08:25:47.102Z,97735.16
2022-10-23T08:28:15.404Z,97735.47
2022-10-23T08:30:42.119Z,97729.25
2022-10-23T08:33:09.329Z,97722.47
2022-10-23T08:35:37.610Z,97720.72
2022-10-23T08:38:04.952Z,97706.97
2022-10-23T08:40:31.889Z,97709.44
2022-10-23T08:43:21.775Z,97704.41
2022-10-23T08:45:59.973Z,97705.00
2022-10-23T08:48:33.321Z,97695.13
2022-10-23T08:51:11.450Z,97700.06
2022-10-23T08:53:52.939Z,97690.81
2022-10-23T08:56:28.154Z,97707.25
2022-10-23T08:59:02.569Z,97699.13
2022-10-23T09:01:43.178Z,97689.44
2022-10-23T09:04:14.530Z,97685.53
2022-10-23T09:07:17.437Z,97677.47
2022-10-23T09:09:50.468Z,97683.56
2022-10-23T09:12:24.390Z,97689.75
2022-10-23T09:15:17.141Z,97674.03
2022-10-23T09:17:44.517Z,97662.97
2022-10-23T09:20:14.406Z,97672.19
2022-10-23T09:22:42.197Z,97677.13
2022-10-23T09:25:18.344Z,97668.38
2022-10-23T09:27:54.781Z,97675.53
2022-10-23T09:30:36.288Z,97665.44
2022-10-23T09:33:25.191Z,97660.56
2022-10-23T09:36:04.317Z,97661.25
2022-10-23T09:38:36.913Z,97656.69
2022-10-23T09:41:13.202Z,97662.97
2022-10-23T09:43:40.117Z,97661.53
2022-10-23T09:46:07.466Z,97657.78
2022-10-23T09:48:34.604Z,97661.25
2022-10-23T09:51:04.022Z,97663.53
2022-10-23T09:53:39.138Z,97651.59
2022-10-23T09:56:28.591Z,97638.56
2022-10-23T09:58:59.001Z,97641.38
2022-10-23T10:01:28.917Z,97647.69
2022-10-23T10:04:00.363Z,97651.25
2022-10-23T10:06:30.016Z,97645.91
2022-10-23T10:09:28.059Z,97649.00
2022-10-23T10:11:59.274Z,97652.72
2022-10-23T10:14:34.661Z,97655.25
2022-10-23T10:17:04.590Z,97659.19
2022-10-23T10:19:52.479Z,97666.53
2022-10-23T10:22:39.480Z,97673.25
2022-10-23T10:25:38.301Z,97683.28
2022-10-23T10:28:29.707Z,97694.97
2022-10-23T10:31:26.551Z,97683.38
2022-10-23T10:34:20.563Z,97683.56
2022-10-23T10:36:56.364Z,97667.34
2022-10-23T10:39:31.897Z,97677.41
2022-10-23T10:42:18.695Z,97672.22
2022-10-23T10:44:50.246Z,97661.72
2022-10-23T10:47:21.259Z,97656.88
2022-10-23T10:50:07.775Z,97654.63
2022-10-23T10:52:48.313Z,97663.91
2022-10-23T10:55:28.341Z,97669.75
2022-10-23T10:58:04.870Z,97663.41
2022-10-23T11:00:34.051Z,97661.56
2022-10-23T11:03:11.408Z,97645.97
2022-10-23T11:05:45.327Z,97647.50
2022-10-23T11:08:22.299Z,97627.88
2022-10-23T11:10:53.597Z,97614.91
2022-10-23T11:13:35.996Z,97616.63
2022-10-23T11:16:10.394Z,97613.28
2022-10-23T11:18:40.679Z,97600.72
2022-10-23T11:21:20.684Z,97607.72
2022-10-23T11:24:11.313Z,97600.03
2022-10-23T11:26:47.139Z,97614.91
2022-10-23T11:30:03.341Z,97612.84
2022-10-23T11:32:42.435Z,97617.69
2022-10-23T11:35:14.971Z,97613.75
2022-10-23T11:37:41.914Z,97601.34
2022-10-23T11:40:08.507Z,97604.66
2022-10-23T11:42:41.029Z,97606.78
2022-10-23T11:45:28.206Z,97607.81
2022-10-23T11:48:14.049Z,97611.63
2022-10-23T11:50:46.476Z,97615.72
2022-10-23T11:53:24.960Z,97600.44
2022-10-23T11:55:58.878Z,97602.22
2022-10-23T11:58:40.998Z,97583.91
2022-10-23T12:01:26.465Z,97581.44
2022-10-23T12:03:58.314Z,97593.34
2022-10-23T12:06:29.715Z,97595.22
2022-10-23T12:09:01.848Z,97583.25
2022-10-23T12:11:41.731Z,97561.16
2022-10-23T12:14:32.704Z,97550.41
2022-10-23T12:17:02.156Z,97555.00
2022-10-23T12:19:31.142Z,97551.16
2022-10-23T12:22:01.070Z,97552.13
2022-10-23T12:24:48.746Z,97538.97
2022-10-23T12:27:26.351Z,97526.53
2022-10-23T12:30:11.421Z,97517.25
2022-10-23T12:32:37.832Z,97519.97
2022-10-23T12:35:18.288Z,97510.25
2022-10-23T12:37:51.570Z,97510.78
2022-10-23T12:40:18.408Z,97504.25
2022-10-23T12:42:55.379Z,97496.25
2022-10-23T12:45:26.907Z,97494.22
2022-10-23T12:47:54.124Z,97488.25
2022-10-23T12:50:20.740Z,97495.09
2022-10-23T12:53:01.075Z,97494.63
2022-10-23T12:55:33.603Z,97490.34
2022-10-23T12:58:02.325Z,97505.97
2022-10-23T13:00:29.436Z,97520.81
2022-10-23T13:03:00.845Z,97512.28
2022-10-23T13:05:30.334Z,97501.25
2022-10-23T13:07:59.393Z,97494.38
2022-10-23T13:10:26.539Z,97519.03
2022-10-23T13:13:02.813Z,97518.41
2022-10-23T13:15:40.789Z,97508.31
2022-10-23T13:18:09.072Z,97514.53
2022-10-23T13:20:55.600Z,97497.31
2022-10-23T13:23:34.375Z,97490.25
2022-10-23T13:26:05.313Z,97489.97
2022-10-23T13:28:33.417Z,97485.13
2022-10-23T13:31:02.972Z,97478.13
2022-10-23T13:33:37.120Z,97488.88
2022-10-23T13:36:15.301Z,97483.56
2022-10-23T13:39:03.687Z,97479.53
2022-10-23T13:41:36.932Z,97470.34
2022-10-23T13:44:03.804Z,97463.28
2022-10-23T13:46:32.641Z,97461.03
2022-10-23T13:48:59.105Z,97464.69
2022-10-23T13:51:28.618Z,97441.44
2022-10-23T13:53:56.799Z,97441.44
2022-10-23T13:56:25.593Z,97435.03
2022-10-23T13:58:52.076Z,97442.72
2022-10-23T14:01:40.213Z,97442.38
2022-10-23T14:04:07.549Z,97423.44
2022-10-23T14:06:34.352Z,97421.28
2022-10-23T14:09:02.754Z,97411.25
2022-10-23T14:11:29.292Z,97412.78
2022-10-23T14:13:58.090Z,97406.41
2022-10-23T14:16:24.728Z,97415.63
2022-10-23T14:18:51.350Z,97418.56
2022-10-23T14:21:20.198Z,97419.25
2022-10-23T14:23:54.004Z,97406.31
2022-10-23T14:26:27.489Z,97393.19
2022-10-23T14:28:55.691Z,97395.41
2022-10-23T14:31:22.988Z,97384.47
2022-10-23T14:33:55.942Z,97380.75
2022-10-23T14:36:23.675Z,97395.78
2022-10-23T14:38:59.037Z,97414.47
2022-10-23T14:41:26.623Z,97411.47
2022-10-23T14:43:58.783Z,97440.63
2022-10-23T14:46:25.851Z,97437.81
2022-10-23T14:49:02.345Z,97456.78
2022-10-23T14:51:30.576Z,97499.06
2022-10-23T14:54:03.639Z,97512.81
2022-10-23T14:56:32.728Z,97492.84
2022-10-23T14:59:04.699Z,97493.28
2022-10-23T15:01:33.645Z,97493.34
2022-10-23T15:04:00.478Z,97495.72
2022-10-23T15:06:29.454Z,97457.53
2022-10-23T15:08:56.020Z,97448.66
2022-10-23T15:11:24.182Z,97460.56
2022-10-23T15:13:53.225Z,97451.66
2022-10-23T15:16:20.530Z,97434.03
2022-10-23T15:18:47.121Z,97420.25
2022-10-23T15:21:14.804Z,97409.69
2022-10-23T15:23:43.760Z,97393.59
2022-10-23T15:26:21.763Z,97388.84
2022-10-23T15:28:53.399Z,97369.22
2022-10-23T15:31:35.683Z,97367.28
2022-10-23T15:34:02.178Z,97374.88
2022-10-23T15:36:28.904Z,97366.38
2022-10-23T15:38:57.576Z,97341.63
2022-10-23T15:41:29.367Z,97336.84
2022-10-23T15:43:56.147Z,97340.53
2022-10-23T15:46:22.834Z,97338.66
2022-10-23T15:48:52.696Z,97345.03
2022-10-23T15:51:19.557Z,97335.91
2022-10-23T15:53:46.273Z,97348.94
2022-10-23T15:56:12.918Z,97348.94
2022-10-23T15:58:41.347Z,97356.31
2022-10-23T16:01:08.172Z,97352.03
2022-10-23T16:03:38.770Z,97358.38
2022-10-23T16:06:07.281Z,97344.09
2022-10-23T16:08:35.686Z,97351.03
2022-10-23T16:11:03.182Z,97347.63
2022-10-23T16:13:29.711Z,97339.50
2022-10-23T16:15:59.961Z,97331.03
2022-10-23T16:18:26.463Z,97348.41
2022-10-23T16:20:55.555Z,97339.50
2022-10-23T16:23:30.380Z,97361.78
2022-10-23T16:25:56.847Z,97361.78
2022-10-23T16:28:23.365Z,97357.25
2022-10-23T16:30:50.097Z,97359.72
2022-10-23T16:33:16.565Z,97374.56
2022-10-23T16:35:43.393Z,97369.19
2022-10-23T16:38:11.602Z,97386.84
2022-10-23T16:40:38.097Z,97398.19
2022-10-23T16:43:04.782Z,97407.66
2022-10-23T16:45:34.397Z,97393.31
2022-10-23T16:48:03.721Z,97397.38
2022-10-23T16:50:30.340Z,97415.78
2022-10-23T16:52:58.563Z,97411.16
2022-10-23T16:55:25.035Z,97400.59
2022-10-23T16:57:51.552Z,97418.16
2022-10-23T17:00:24.354Z,97417.44
2022-10-23T17:02:50.802Z,97423.06
2022-10-23T17:05:17.316Z,97418.44
2022-10-23T17:07:45.860Z,97430.16
2022-10-23T17:10:14.838Z,97449.69
2022-10-23T17:12:41.326Z,97481.72
2022-10-23T17:15:08.878Z,97485.72
2022-10-23T17:17:35.409Z,97489.28
2022-10-23T17:20:01.880Z,97479.56
2022-10-23T17:22:28.527Z,97475.22
2022-10-23T17:24:55.002Z,97481.88
2022-10-23T17:27:21.536Z,97499.72
2022-10-23T17:29:49.764Z,97508.53
2022-10-23T17:32:16.613Z,97514.38
2022-10-23T17:34:43.122Z,97548.91
2022-10-23T17:37:12.440Z,97538.78
2022-10-23T17:39:40.464Z,97541.44
2022-10-23T17:45:04.564Z,97549.16
2022-10-23T17:47:31.068Z,97553.66
2022-10-23T17:49:57.547Z,97559.91
2022-10-23T17:52:24.078Z,97563.41
2022-10-23T17:54:53.657Z,97577.06
2022-10-23T17:57:27.594Z,97574.59
2022-10-23T17:59:54.240Z,97587.50
2022-10-23T18:02:20.830Z,97581.66
2022-10-23T18:04:47.537Z,97607.38
2022-10-23T18:07:15.656Z,97615.97
2022-10-23T18:09:42.587Z,97605.06
2022-10-23T18:12:12.725Z,97614.38
2022-10-23T18:14:39.252Z,97621.44
2022-10-23T18:17:05.792Z,97613.66
2022-10-23T18:19:34.549Z,97616.63
2022-10-23T18:22:01.017Z,97626.50
2022-10-23T18:27:24.251Z,97653.69
2022-10-23T18:29:51.109Z,97652.78
2022-10-23T18:32:17.599Z,97646.91
2022-10-23T18:34:44.206Z,97641.50
2022-10-23T18:37:10.699Z,97633.38
2022-10-23T18:39:37.416Z,97627.22
2022-10-23T18:42:04.449Z,97616.78
2022-10-23T18:44:30.978Z,97626.66
2022-10-23T18:46:59.292Z,97631.00
2022-10-23T18:49:28.495Z,97641.56
2022-10-23T18:51:55.658Z,97659.47
2022-10-23T18:54:22.261Z,97661.09
2022-10-23T18:56:51.412Z,97640.00
2022-10-23T18:59:20.356Z,97634.44
2022-10-23T19:01:47.226Z,97624.81
2022-10-23T19:04:15.957Z,97626.09
2022-10-23T19:06:42.835Z,97622.75
2022-10-23T19:09:13.685Z,97657.16
2022-10-23T19:11:43.458Z,97651.81
2022-10-23T19:14:10.235Z,97672.44
2022-10-23T19:16:46.131Z,97671.06
2022-10-23T19:19:21.327Z,97654.44
2022-10-23T19:24:19.264Z,97617.03
2022-10-23T19:26:46.211Z,97610.25
2022-10-23T19:29:18.604Z,97597.19
2022-10-23T19:31:49.283Z,97625.19
2022-10-23T19:34:21.582Z,97617.22
2022-10-23T19:36:48.697Z,97595.34
2022-10-23T19:39:16.036Z,97553.34
2022-10-23T19:41:43.080Z,97514.13
2022-10-23T19:44:09.588Z,97555.28
2022-10-23T19:46:37.208Z,97551.38
2022-10-23T19:49:05.352Z,97569.41
2022-10-23T19:51:32.590Z,97565.59
2022-10-23T19:53:59.079Z,97572.25
2022-10-23T19:56:27.830Z,97569.50
2022-10-23T19:58:54.706Z,97579.97
2022-10-23T20:01:24.497Z,97595.94
2022-10-23T20:03:51.688Z,97568.94
2022-10-23T20:06:24.836Z,97593.38
2022-10-23T20:08:51.949Z,97579.44
2022-10-23T20:11:25.484Z,97577.97
2022-10-23T20:13:52.633Z,97566.28
2022-10-23T20:16:21.602Z,97575.72
2022-10-23T20:18:49.383Z,97591.56
2022-10-23T20:21:16.275Z,97617.19
2022-10-23T20:23:43.311Z,97642.47
2022-10-23T20:26:12.995Z,97639.19
2022-10-23T20:28:39.511Z,97625.44
2022-10-23T20:31:08.539Z,97617.09
2022-10-23T20:33:36.478Z,97613.81
2022-10-23T20:36:04.479Z,97592.38
2022-10-23T20:38:31.162Z,97603.25
2022-10-23T20:41:00.508Z,97630.09
2022-10-23T20:43:27.414Z,97607.00
2022-10-23T20:45:53.969Z,97610.09
2022-10-23T20:48:32.409Z,97585.72
2022-10-23T20:51:02.913Z,97604.50
2022-10-23T20:53:29.689Z,97616.38
2022-10-23T20:55:58.189Z,97607.34
2022-10-23T20:58:24.699Z,97605.06
2022-10-23T21:03:27.271Z,97583.13
2022-10-23T21:05:53.789Z,97600.13
2022-10-23T21:08:20.235Z,97598.94
2022-10-23T21:10:47.895Z,97607.72
2022-10-23T21:13:14.397Z,97595.66
2022-10-23T21:15:45.511Z,97600.50
2022-10-23T21:18:26.418Z,97590.94
2022-10-23T21:21:00.366Z,97595.75
2022-10-23T21:23:28.890Z,97583.47
2022-10-23T21:25:55.343Z,97598.94
2022-10-23T21:28:21.848Z,97594.41
2022-10-23T21:30:48.328Z,97596.47
2022-10-23T21:33:14.789Z,97609.63
2022-10-23T21:35:52.200Z,97610.72
2022-10-23T21:38:25.556Z,97621.59
2022-10-23T21:40:55.623Z,97607.41
2022-10-23T21:43:22.188Z,97609.97
2022-10-23T21:45:48.846Z,97621.84
2022-10-23T21:48:15.305Z,97627.34
2022-10-23T21:50:42.081Z,97620.84
2022-10-23T21:53:10.346Z,97632.28
2022-10-23T21:55:36.885Z,97638.13
2022-10-23T21:58:03.398Z,97631.22
2022-10-23T22:00:31.597Z,97627.06
2022-10-23T22:03:00.045Z,97622.88
2022-10-23T22:05:26.499Z,97628.25
2022-10-23T22:07:53.026Z,97636.63
2022-10-23T22:10:19.523Z,97629.03
2022-10-23T22:12:46.017Z,97624.84
2022-10-23T22:15:21.223Z,97643.53
2022-10-23T22:17:47.726Z,97648.56
2022-10-23T22:20:14.239Z,97647.34
2022-10-23T22:22:40.753Z,97632.19
2022-10-23T22:25:07.645Z,97615.16
2022-10-23T22:27:34.428Z,97600.56
2022-10-23T22:30:05.547Z,97611.53
2022-10-23T22:32:32.098Z,97610.88
2022-10-23T22:34:58.590Z,97600.97
2022-10-23T22:37:29.789Z,97604.38
2022-10-23T22:39:56.232Z,97611.09
2022-10-23T22:42:22.710Z,97611.06
2022-10-23T22:44:51.366Z,97597.88
2022-10-23T22:47:17.887Z,97591.16
2022-10-23T22:49:44.565Z,97587.22
2022-10-23T22:52:12.781Z,97580.19
2022-10-23T22:54:39.351Z,97589.53
2022-10-23T22:57:05.830Z,97570.88
2022-10-23T22:59:37.401Z,97568.97
2022-10-23T23:02:04.102Z,97553.66
2022-10-23T23:04:38.888Z,97567.41
2022-10-23T23:07:12.387Z,97549.00
2022-10-23T23:09:41.276Z,97539.81
2022-10-23T23:12:09.391Z,97548.31
2022-10-23T23:14:36.474Z,97557.06
2022-10-23T23:17:03.677Z,97551.25
2022-10-23T23:19:30.394Z,97557.78
2022-10-23T23:22:03.943Z,97554.66
2022-10-23T23:24:30.465Z,97559.97
2022-10-23T23:26:57.014Z,97555.06
2022-10-23T23:29:23.640Z,97563.88
2022-10-23T23:31:53.560Z,97565.66
2022-10-23T23:34:20.902Z,97559.63
2022-10-23T23:36:47.516Z,97562.03
2022-10-23T23:39:14.030Z,97565.25
2022-10-23T23:41:40.475Z,97574.00
2022-10-23T23:44:14.710Z,97582.47
2022-10-23T23:46:41.211Z,97574.22
2022-10-23T23:49:07.701Z,97579.94
2022-10-23T23:51:34.394Z,97580.81
2022-10-23T23:54:00.926Z,97564.00
2022-10-23T23:56:28.152Z,97572.03
2022-10-23T23:58:56.619Z,97563.28
